Bookmark and Share
Track history (hours):
 

Maritime Instructor

More information available from US FCC via Universal Licensing System and Coast Guard Vessel Documentation Center.

Last reported at 2014-Apr-19 01:34 UTC. Time now 2014-Apr-24 09:14 UTC.
Position N 47°40' W 122°23'.

Length 30 m; draft 2 m.

Type: Passenger vessel. MMSI: 303556000.

NotesDate/timePositionNaut miles runAvg speedWind from/ knotsBaromVisibWave heightAir tempDewpointWater temp
2014-Apr-19 01:34N 47°40' W 122°23'0 0.3
2014-Apr-19 01:33N 47°40' W 122°23'0 0.0
2014-Apr-19 01:30N 47°40' W 122°23'3 2.9
2014-Apr-19 00:33N 47°41' W 122°26'0 6.5
2014-Apr-19 00:30N 47°41' W 122°26'4 3.7
2014-Apr-18 23:33N 47°45' W 122°27'110.6
2014-Apr-18 23:30N 47°44' W 122°28'5 5.0
2014-Apr-18 22:33N 47°42' W 122°34'0 6.0
2014-Apr-18 22:30N 47°42' W 122°34'9 9.1
2014-Apr-18 21:33N 47°33' W 122°37'1 9.9
2014-Apr-18 21:30N 47°33' W 122°38'1 0.7
2014-Apr-18 20:33N 47°33' W 122°38'0 0.3
2014-Apr-18 20:24N 47°33' W 122°38'0 0.0
2014-Apr-18 19:30N 47°33' W 122°38'0 0.0
2014-Apr-18 19:29N 47°33' W 122°38'6 6.2
2014-Apr-18 18:33N 47°34' W 122°30'111.4
2014-Apr-18 18:29N 47°34' W 122°29'7 7.1
2014-Apr-18 17:33N 47°40' W 122°24'0 0.0
2014-Apr-18 17:30N 47°40' W 122°24'0 0.2
2014-Apr-18 16:33N 47°40' W 122°24'0 0.1
2014-Apr-18 16:29N 47°40' W 122°24'1 0.8
2014-Apr-18 15:33N 47°40' W 122°23'0 0.1
2014-Apr-18 15:29N 47°40' W 122°23'  
2014-Apr-16 01:33N 47°40' W 122°23'0 0.0
2014-Apr-16 01:32N 47°40' W 122°23'2 2.2
2014-Apr-16 00:33N 47°41' W 122°25'0 4.4
2014-Apr-16 00:32N 47°41' W 122°25'1 1.2
2014-Apr-15 23:33N 47°41' W 122°26'0 4.3
2014-Apr-15 23:32N 47°41' W 122°27'6 6.6
2014-Apr-15 22:33N 47°35' W 122°29'0 9.0
2014-Apr-15 22:32N 47°35' W 122°29'4 3.9
2014-Apr-15 21:33N 47°35' W 122°34'0 4.9
2014-Apr-15 21:32N 47°35' W 122°34'2 2.5
2014-Apr-15 20:33N 47°34' W 122°37'0 0.3
2014-Apr-15 20:32N 47°34' W 122°37'0 0.0
2014-Apr-15 19:33N 47°34' W 122°37'0 0.2
2014-Apr-15 19:31N 47°34' W 122°37'1 0.6
2014-Apr-15 18:33N 47°34' W 122°37'0 4.8
2014-Apr-15 18:32N 47°34' W 122°36'8 8.3
2014-Apr-15 17:33N 47°42' W 122°34'0 7.9
2014-Apr-15 17:32N 47°42' W 122°34'6 6.6
2014-Apr-15 16:33N 47°41' W 122°25'0 5.9
2014-Apr-15 16:32N 47°41' W 122°25'  
2014-Apr-12 02:25N 47°40' W 122°23'0 0.0
2014-Apr-12 02:24N 47°40' W 122°23'1 1.4
2014-Apr-12 01:33N 47°40' W 122°24'0 0.3
2014-Apr-12 01:24N 47°40' W 122°24'910.3
2014-Apr-12 00:33N 47°49' W 122°26'112.4
2014-Apr-12 00:29N 47°50' W 122°26'1111.6
2014-Apr-11 23:32N 47°58' W 122°37'10 3.0
2014-Apr-11 20:20N 48°07' W 122°43'1011.7
2014-Apr-11 19:31N 47°58' W 122°36'611.6
2014-Apr-11 18:58N 47°55' W 122°28'512.9
2014-Apr-11 18:33N 47°50' W 122°26'0 9.0
2014-Apr-11 18:33N 47°50' W 122°26'1010.0
2014-Apr-11 17:33N 47°40' W 122°24'0 0.0
2014-Apr-11 17:33N 47°40' W 122°24'1 1.0
2014-Apr-11 16:33N 47°40' W 122°23'0 0.5
2014-Apr-11 16:33N 47°40' W 122°23'  
2014-Apr-09 01:59N 47°40' W 122°23'  

Dump ship's entire track history

sailing weather and tide predictions

Maritime Instructor — WCW8625 — position and weather